createdAt,value
2022-08-08T00:00:52.783Z,22.60
2022-08-08T00:02:42.929Z,22.31
2022-08-08T00:05:19.142Z,22.27
2022-08-08T00:07:54.117Z,22.25
2022-08-08T00:10:31.234Z,22.08
2022-08-08T00:13:10.245Z,21.84
2022-08-08T00:15:56.658Z,21.85
2022-08-08T00:18:36.343Z,21.82
2022-08-08T00:21:07.899Z,21.73
2022-08-08T00:23:47.662Z,21.67
2022-08-08T00:26:29.759Z,21.62
2022-08-08T00:29:05.965Z,21.36
2022-08-08T00:32:16.382Z,21.20
2022-08-08T00:35:04.200Z,21.18
2022-08-08T00:37:48.015Z,21.02
2022-08-08T00:41:11.271Z,20.81
2022-08-08T00:44:01.550Z,21.04
2022-08-08T00:47:04.353Z,21.25
2022-08-08T00:50:27.102Z,21.24
2022-08-08T00:53:06.700Z,21.11
2022-08-08T00:56:20.761Z,20.84
2022-08-08T00:59:44.183Z,20.65
2022-08-08T01:03:59.768Z,20.55
2022-08-08T01:06:00.944Z,20.80
2022-08-08T01:09:00.491Z,20.56
2022-08-08T01:12:29.761Z,20.80
2022-08-08T01:15:43.815Z,20.71
2022-08-08T01:18:53.815Z,20.58
2022-08-08T01:22:12.433Z,20.45
2022-08-08T01:25:08.482Z,20.46
2022-08-08T01:28:02.278Z,20.49
2022-08-08T01:31:06.046Z,20.09
2022-08-08T01:34:20.407Z,20.11
2022-08-08T01:37:22.007Z,20.17
2022-08-08T01:40:23.356Z,20.06
2022-08-08T01:42:59.587Z,19.58
2022-08-08T01:45:56.466Z,19.82
2022-08-08T01:48:51.271Z,19.75
2022-08-08T01:52:42.760Z,19.90
2022-08-08T01:55:45.099Z,19.91
2022-08-08T01:58:04.470Z,19.80
2022-08-08T02:00:44.449Z,19.77
2022-08-08T02:03:55.433Z,19.95
2022-08-08T02:06:43.530Z,20.13
2022-08-08T02:10:01.836Z,20.00
2022-08-08T02:12:25.395Z,20.11
2022-08-08T02:15:05.273Z,20.29
2022-08-08T02:17:46.922Z,20.01
2022-08-08T02:21:01.900Z,20.05
2022-08-08T02:23:31.920Z,19.88
2022-08-08T02:26:10.166Z,19.81
2022-08-08T02:28:51.716Z,19.97
2022-08-08T02:31:59.051Z,20.05
2022-08-08T02:35:08.336Z,20.09
2022-08-08T02:37:51.857Z,20.05
2022-08-08T02:40:39.211Z,20.12
2022-08-08T02:44:38.976Z,20.11
2022-08-08T02:46:50.681Z,20.09
2022-08-08T02:49:51.690Z,20.09
2022-08-08T02:52:42.673Z,20.01
2022-08-08T02:55:59.698Z,20.03
2022-08-08T02:59:17.431Z,20.10
2022-08-08T03:02:40.341Z,19.79
2022-08-08T03:06:03.138Z,19.91
2022-08-08T03:09:28.650Z,19.94
2022-08-08T03:13:01.461Z,19.95
2022-08-08T03:15:57.189Z,20.21
2022-08-08T03:18:37.614Z,19.44
2022-08-08T03:21:10.090Z,19.90
2022-08-08T03:23:59.601Z,19.44
2022-08-08T03:26:42.551Z,19.68
2022-08-08T03:29:17.177Z,19.70
2022-08-08T03:32:12.843Z,19.46
2022-08-08T03:34:42.269Z,19.37
2022-08-08T03:37:59.084Z,19.76
2022-08-08T03:40:03.717Z,19.56
2022-08-08T03:42:32.021Z,19.47
2022-08-08T03:44:59.938Z,19.70
2022-08-08T03:47:45.265Z,19.71
2022-08-08T03:50:19.673Z,19.61
2022-08-08T03:52:48.723Z,19.48
2022-08-08T03:55:56.202Z,19.43
2022-08-08T03:58:08.784Z,19.45
2022-08-08T04:01:23.649Z,19.24
2022-08-08T04:03:57.418Z,19.57
2022-08-08T04:06:29.213Z,19.79
2022-08-08T04:08:58.348Z,19.74
2022-08-08T04:11:57.830Z,19.67
2022-08-08T04:14:35.784Z,19.75
2022-08-08T04:17:06.760Z,19.75
2022-08-08T04:19:43.237Z,19.83
2022-08-08T04:22:11.105Z,19.91
2022-08-08T04:24:41.585Z,19.96
2022-08-08T04:27:42.676Z,19.69
2022-08-08T04:30:17.083Z,20.11
2022-08-08T04:32:48.153Z,20.01
2022-08-08T04:35:20.157Z,20.10
2022-08-08T04:37:50.578Z,20.21
2022-08-08T04:40:19.094Z,20.33
2022-08-08T04:42:56.929Z,21.89
2022-08-08T04:45:26.163Z,23.07
2022-08-08T04:47:54.414Z,23.77
2022-08-08T04:50:25.355Z,24.00
2022-08-08T04:52:58.656Z,24.37
2022-08-08T04:55:47.077Z,24.53
2022-08-08T04:58:22.614Z,23.94
2022-08-08T05:00:51.909Z,23.55
2022-08-08T05:04:11.519Z,23.86
2022-08-08T05:06:13.235Z,23.79
2022-08-08T05:08:51.825Z,23.44
2022-08-08T05:11:23.836Z,23.80
2022-08-08T05:13:58.494Z,24.84
2022-08-08T05:16:52.756Z,25.09
2022-08-08T05:20:11.422Z,25.53
2022-08-08T05:22:06.221Z,26.00
2022-08-08T05:24:34.921Z,26.11
2022-08-08T05:27:06.075Z,26.45
2022-08-08T05:29:36.777Z,26.17
2022-08-08T05:32:07.555Z,25.82
2022-08-08T05:34:38.160Z,25.22
2022-08-08T05:37:15.963Z,24.99
2022-08-08T05:39:51.145Z,26.11
2022-08-08T05:42:25.724Z,26.60
2022-08-08T05:45:00.461Z,26.62
2022-08-08T05:47:29.887Z,26.69
2022-08-08T05:50:11.562Z,27.80
2022-08-08T05:52:40.751Z,27.94
2022-08-08T05:55:10.710Z,28.50
2022-08-08T05:58:04.169Z,28.77
2022-08-08T06:00:34.020Z,28.93
2022-08-08T06:03:24.617Z,28.64
2022-08-08T06:05:56.628Z,28.68
2022-08-08T06:08:34.925Z,28.69
2022-08-08T06:11:04.432Z,28.44
2022-08-08T06:13:36.385Z,29.02
2022-08-08T06:16:19.216Z,29.11
2022-08-08T06:18:54.711Z,29.81
2022-08-08T06:21:32.467Z,30.22
2022-08-08T06:24:14.085Z,29.87
2022-08-08T06:26:57.825Z,29.80
2022-08-08T06:29:59.476Z,29.74
2022-08-08T06:32:31.037Z,29.69
2022-08-08T06:36:04.159Z,29.94
2022-08-08T06:37:56.113Z,30.14
2022-08-08T06:40:27.325Z,30.38
2022-08-08T06:42:56.737Z,30.26
2022-08-08T06:45:25.131Z,30.43
2022-08-08T06:48:01.515Z,31.41
2022-08-08T06:50:33.688Z,31.92
2022-08-08T06:53:09.903Z,31.49
2022-08-08T06:55:43.217Z,31.85
2022-08-08T06:58:11.658Z,31.21
2022-08-08T07:00:41.269Z,30.69
2022-08-08T07:03:51.684Z,30.78
2022-08-08T07:06:10.797Z,31.05
2022-08-08T07:08:40.488Z,31.57
2022-08-08T07:11:22.249Z,31.94
2022-08-08T07:14:00.350Z,31.71
2022-08-08T07:16:41.165Z,31.35
2022-08-08T07:19:32.834Z,31.54
2022-08-08T07:22:11.867Z,31.91
2022-08-08T07:24:53.744Z,32.86
2022-08-08T07:27:35.567Z,32.63
2022-08-08T07:30:21.231Z,32.70
2022-08-08T07:32:54.925Z,31.99
2022-08-08T07:35:31.018Z,32.57
2022-08-08T07:38:09.704Z,33.60
2022-08-08T07:40:48.389Z,33.49
2022-08-08T07:43:35.119Z,33.71
2022-08-08T07:46:24.181Z,33.56
2022-08-08T07:48:54.015Z,33.54
2022-08-08T07:51:44.955Z,33.93
2022-08-08T07:54:27.342Z,33.29
2022-08-08T07:57:02.940Z,33.02
2022-08-08T07:59:37.559Z,33.70
2022-08-08T08:02:35.398Z,33.77
2022-08-08T08:05:03.616Z,33.73
2022-08-08T08:07:38.669Z,33.70
2022-08-08T08:10:12.609Z,33.63
2022-08-08T08:12:46.048Z,34.04
2022-08-08T08:15:21.753Z,33.78
2022-08-08T08:17:56.081Z,33.45
2022-08-08T08:20:30.281Z,33.92
2022-08-08T08:23:00.071Z,33.44
2022-08-08T08:25:42.504Z,32.86
2022-08-08T08:28:21.462Z,34.52
2022-08-08T08:30:53.069Z,35.36
2022-08-08T08:33:21.349Z,35.51
2022-08-08T08:36:18.629Z,35.20
2022-08-08T08:38:49.544Z,34.45
2022-08-08T08:41:20.148Z,35.14
2022-08-08T08:43:52.118Z,34.99
2022-08-08T08:46:25.951Z,35.00
2022-08-08T08:48:56.166Z,34.33
2022-08-08T08:51:27.932Z,33.67
2022-08-08T08:54:02.138Z,33.50
2022-08-08T08:56:32.892Z,32.30
2022-08-08T08:59:03.765Z,33.30
2022-08-08T09:01:35.987Z,34.00
2022-08-08T09:04:31.018Z,33.75
2022-08-08T09:07:00.244Z,34.19
2022-08-08T09:09:39.323Z,33.33
2022-08-08T09:12:19.903Z,32.71
2022-08-08T09:14:50.046Z,32.37
2022-08-08T09:17:31.712Z,32.69
2022-08-08T09:21:57.485Z,33.06
2022-08-08T09:22:58.850Z,33.82
2022-08-08T09:25:35.598Z,31.92
2022-08-08T09:28:05.150Z,32.48
2022-08-08T09:30:39.654Z,33.44
2022-08-08T09:33:54.347Z,34.33
2022-08-08T09:35:59.068Z,33.86
2022-08-08T09:38:35.897Z,33.32
2022-08-08T09:42:14.929Z,32.69
2022-08-08T09:44:35.655Z,33.39
2022-08-08T09:47:25.280Z,32.52
2022-08-08T09:49:58.868Z,31.87
2022-08-08T09:52:58.388Z,31.09
2022-08-08T09:56:01.863Z,32.08
2022-08-08T09:58:26.047Z,33.07
2022-08-08T10:01:03.224Z,33.34
2022-08-08T10:03:43.627Z,32.99
2022-08-08T10:06:16.173Z,31.32
2022-08-08T10:08:46.732Z,30.74
2022-08-08T10:12:28.358Z,31.27
2022-08-08T10:14:10.819Z,31.92
2022-08-08T10:16:56.831Z,31.89
2022-08-08T10:19:46.242Z,33.07
2022-08-08T10:22:25.196Z,33.94
2022-08-08T10:25:01.428Z,33.17
2022-08-08T10:27:34.507Z,32.47
2022-08-08T10:30:07.439Z,32.03
2022-08-08T10:32:52.157Z,31.54
2022-08-08T10:36:09.201Z,30.49
2022-08-08T10:38:16.244Z,30.80
2022-08-08T10:40:46.725Z,31.59
2022-08-08T10:43:14.788Z,33.40
2022-08-08T10:45:55.700Z,32.64
2022-08-08T10:48:37.336Z,32.20
2022-08-08T10:51:14.071Z,32.61
2022-08-08T10:53:57.084Z,32.62
2022-08-08T10:56:32.192Z,32.00
2022-08-08T10:59:01.574Z,31.82
2022-08-08T11:01:33.348Z,33.71
2022-08-08T11:04:04.839Z,34.75
2022-08-08T11:06:35.163Z,34.43
2022-08-08T11:09:15.065Z,33.30
2022-08-08T11:12:04.539Z,31.97
2022-08-08T11:14:36.166Z,32.49
2022-08-08T11:17:07.707Z,33.72
2022-08-08T11:19:43.452Z,33.40
2022-08-08T11:22:16.273Z,35.18
2022-08-08T11:24:47.746Z,35.20
2022-08-08T11:27:23.362Z,35.08
2022-08-08T11:30:19.666Z,35.26
2022-08-08T11:32:48.453Z,36.65
2022-08-08T11:35:29.347Z,36.28
2022-08-08T11:38:35.355Z,35.62
2022-08-08T11:40:54.905Z,36.35
2022-08-08T11:43:25.983Z,35.80
2022-08-08T11:46:14.552Z,34.67
2022-08-08T11:48:48.977Z,35.46
2022-08-08T11:51:38.818Z,36.10
2022-08-08T11:54:26.628Z,36.71
2022-08-08T11:56:56.423Z,36.20
2022-08-08T11:59:58.400Z,36.21
2022-08-08T12:02:40.135Z,35.47
2022-08-08T12:05:13.318Z,36.67
2022-08-08T12:07:48.854Z,35.90
2022-08-08T12:10:20.856Z,36.50
2022-08-08T12:12:49.756Z,35.84
2022-08-08T12:15:42.593Z,35.70
2022-08-08T12:18:18.158Z,35.65
2022-08-08T12:20:53.200Z,35.76
2022-08-08T12:23:42.737Z,36.04
2022-08-08T12:26:27.273Z,35.45
2022-08-08T12:29:03.291Z,35.92
2022-08-08T12:31:38.945Z,35.98
2022-08-08T12:34:14.827Z,35.22
2022-08-08T12:36:49.276Z,35.68
2022-08-08T12:40:01.188Z,34.95
2022-08-08T12:42:20.808Z,35.78
2022-08-08T12:44:50.439Z,35.11
2022-08-08T12:47:57.748Z,35.15
2022-08-08T12:50:17.009Z,34.84
2022-08-08T12:52:54.606Z,35.24
2022-08-08T12:55:32.110Z,35.34
2022-08-08T12:58:15.889Z,34.60
2022-08-08T13:00:47.316Z,34.10
2022-08-08T13:03:27.928Z,34.47
2022-08-08T13:06:13.871Z,34.68
2022-08-08T13:08:53.499Z,34.16
2022-08-08T13:11:28.724Z,33.97
2022-08-08T13:14:15.539Z,33.02
2022-08-08T13:16:44.063Z,32.53
2022-08-08T13:19:17.911Z,32.39
2022-08-08T13:22:04.995Z,32.08
2022-08-08T13:24:47.834Z,31.91
2022-08-08T13:27:20.610Z,32.33
2022-08-08T13:29:51.500Z,32.38
2022-08-08T13:32:23.645Z,32.93
2022-08-08T13:34:56.315Z,33.00
2022-08-08T13:37:27.970Z,32.70
2022-08-08T13:40:18.122Z,31.75
2022-08-08T13:42:56.069Z,32.43
2022-08-08T13:45:26.300Z,32.43
2022-08-08T13:47:58.505Z,32.28
2022-08-08T13:50:35.590Z,31.85
2022-08-08T13:53:24.574Z,32.14
2022-08-08T13:56:05.164Z,32.29
2022-08-08T13:58:34.571Z,32.21
2022-08-08T14:01:13.649Z,32.06
2022-08-08T14:03:54.987Z,31.90
2022-08-08T14:06:33.206Z,31.75
2022-08-08T14:09:24.670Z,31.63
2022-08-08T14:11:52.302Z,31.67
2022-08-08T14:14:27.002Z,31.59
2022-08-08T14:16:55.501Z,31.68
2022-08-08T14:19:57.448Z,30.83
2022-08-08T14:22:25.624Z,31.82
2022-08-08T14:24:56.112Z,31.53
2022-08-08T14:27:30.544Z,31.36
2022-08-08T14:30:03.844Z,31.16
2022-08-08T14:32:47.825Z,31.11
2022-08-08T14:35:23.046Z,31.02
2022-08-08T14:37:57.232Z,31.24
2022-08-08T14:40:29.670Z,31.52
2022-08-08T14:43:01.472Z,31.68
2022-08-08T14:45:47.047Z,31.62
2022-08-08T14:48:34.805Z,31.71
2022-08-08T14:51:08.036Z,31.72
2022-08-08T14:53:54.499Z,31.30
2022-08-08T14:56:24.813Z,31.60
2022-08-08T14:58:55.165Z,31.60
2022-08-08T15:01:28.295Z,30.97
2022-08-08T15:04:10.399Z,31.46
2022-08-08T15:06:39.157Z,31.26
2022-08-08T15:09:11.323Z,30.69
2022-08-08T15:11:46.162Z,31.10
2022-08-08T15:14:26.488Z,31.33
2022-08-08T15:16:55.140Z,31.36
2022-08-08T15:19:28.107Z,31.30
2022-08-08T15:21:57.753Z,31.32
2022-08-08T15:24:31.387Z,31.33
2022-08-08T15:27:04.078Z,31.37
2022-08-08T15:29:49.533Z,31.02
2022-08-08T15:32:20.464Z,31.20
2022-08-08T15:34:51.054Z,31.15
2022-08-08T15:37:19.236Z,31.19
2022-08-08T15:39:47.963Z,31.16
2022-08-08T15:42:31.225Z,30.90
2022-08-08T15:45:02.608Z,30.87
2022-08-08T15:47:32.047Z,30.70
2022-08-08T15:50:00.374Z,30.87
2022-08-08T15:52:30.025Z,30.90
2022-08-08T15:55:01.267Z,30.86
2022-08-08T15:57:35.758Z,30.83
2022-08-08T16:00:27.341Z,30.83
2022-08-08T16:02:57.771Z,30.80
2022-08-08T16:05:35.545Z,30.78
2022-08-08T16:08:04.238Z,30.79
2022-08-08T16:13:07.815Z,30.77
2022-08-08T16:13:30.261Z,30.71
2022-08-08T16:16:13.306Z,30.66
2022-08-08T16:18:56.240Z,30.37
2022-08-08T16:21:27.983Z,29.67
2022-08-08T16:23:57.678Z,30.60
2022-08-08T16:26:34.479Z,30.64
2022-08-08T16:29:07.080Z,30.45
2022-08-08T16:31:42.109Z,30.66
2022-08-08T16:34:19.143Z,29.75
2022-08-08T16:36:49.501Z,30.54
2022-08-08T16:39:59.497Z,30.48
2022-08-08T16:42:06.951Z,30.40
2022-08-08T16:44:53.912Z,30.39
2022-08-08T16:47:39.881Z,30.23
2022-08-08T16:50:14.093Z,30.39
2022-08-08T16:55:04.692Z,30.32
2022-08-08T16:55:54.482Z,30.03
2022-08-08T16:58:21.066Z,30.12
2022-08-08T17:00:53.633Z,29.90
2022-08-08T17:03:24.767Z,29.44
2022-08-08T17:06:02.973Z,29.76
2022-08-08T17:08:30.916Z,29.58
2022-08-08T17:11:10.413Z,29.68
2022-08-08T17:13:40.920Z,29.63
2022-08-08T17:16:17.809Z,29.37
2022-08-08T17:18:51.669Z,29.34
2022-08-08T17:21:21.404Z,29.42
2022-08-08T17:23:58.231Z,29.39
2022-08-08T17:26:30.037Z,29.36
2022-08-08T17:28:58.661Z,29.26
2022-08-08T17:31:44.797Z,28.82
2022-08-08T17:34:37.750Z,29.01
2022-08-08T17:37:06.809Z,28.96
2022-08-08T17:40:04.297Z,28.85
2022-08-08T17:42:27.652Z,29.00
2022-08-08T17:44:57.554Z,28.84
2022-08-08T17:47:37.710Z,28.83
2022-08-08T17:50:12.082Z,28.78
2022-08-08T17:52:43.025Z,28.43
2022-08-08T17:56:04.147Z,28.69
2022-08-08T17:58:02.087Z,28.60
2022-08-08T18:00:31.222Z,28.52
2022-08-08T18:03:08.976Z,28.46
2022-08-08T18:05:48.294Z,28.42
2022-08-08T18:08:38.408Z,28.35
2022-08-08T18:11:06.461Z,28.26
2022-08-08T18:13:41.904Z,28.20
2022-08-08T18:16:11.331Z,28.18
2022-08-08T18:18:42.900Z,28.14
2022-08-08T18:21:35.630Z,28.08
2022-08-08T18:24:17.715Z,27.85
2022-08-08T18:26:54.367Z,27.86
2022-08-08T18:29:27.246Z,27.91
2022-08-08T18:31:58.602Z,27.82
2022-08-08T18:34:27.591Z,27.76
2022-08-08T18:36:57.294Z,27.52
2022-08-08T18:39:28.091Z,27.37
2022-08-08T18:42:03.311Z,27.22
2022-08-08T18:44:33.173Z,27.51
2022-08-08T18:47:03.849Z,27.44
2022-08-08T18:49:58.071Z,27.40
2022-08-08T18:52:22.570Z,27.10
2022-08-08T18:55:00.627Z,27.29
2022-08-08T18:57:40.758Z,27.07
2022-08-08T19:00:16.979Z,26.89
2022-08-08T19:02:56.827Z,26.67
2022-08-08T19:05:31.780Z,26.56
2022-08-08T19:08:10.117Z,26.70
2022-08-08T19:10:52.336Z,26.69
2022-08-08T19:13:24.250Z,25.94
2022-08-08T19:15:55.945Z,26.53
2022-08-08T19:18:32.343Z,26.50
2022-08-08T19:21:23.021Z,26.53
2022-08-08T19:24:00.439Z,26.52
2022-08-08T19:26:31.247Z,26.39
2022-08-08T19:28:59.947Z,26.47
2022-08-08T19:31:30.995Z,26.37
2022-08-08T19:34:04.847Z,26.44
2022-08-08T19:36:46.985Z,26.43
2022-08-08T19:39:17.458Z,26.42
2022-08-08T19:41:47.633Z,26.27
2022-08-08T19:44:26.771Z,26.43
2022-08-08T19:47:05.099Z,26.45
2022-08-08T19:49:36.702Z,26.31
2022-08-08T19:52:06.829Z,26.00
2022-08-08T19:54:36.291Z,26.18
2022-08-08T19:57:07.586Z,25.91
2022-08-08T19:59:35.913Z,26.12
2022-08-08T20:02:05.719Z,25.99
2022-08-08T20:04:34.081Z,25.91
2022-08-08T20:07:05.156Z,25.86
2022-08-08T20:09:55.378Z,25.82
2022-08-08T20:12:32.805Z,25.54
2022-08-08T20:15:09.792Z,25.64
2022-08-08T20:17:43.100Z,25.66
2022-08-08T20:20:19.007Z,25.47
2022-08-08T20:22:54.324Z,25.87
2022-08-08T20:25:29.585Z,25.64
2022-08-08T20:28:01.022Z,25.89
2022-08-08T20:30:53.644Z,25.66
2022-08-08T20:35:56.998Z,25.83
2022-08-08T20:38:29.075Z,25.53
2022-08-08T20:41:05.713Z,25.39
2022-08-08T20:43:49.460Z,25.24
2022-08-08T20:46:20.786Z,25.74
2022-08-08T20:48:51.300Z,25.71
2022-08-08T20:51:20.845Z,25.69
2022-08-08T20:53:59.204Z,25.71
2022-08-08T20:56:35.541Z,25.68
2022-08-08T20:59:05.873Z,25.58
2022-08-08T21:02:06.508Z,25.57
2022-08-08T21:04:27.655Z,25.17
2022-08-08T21:06:56.533Z,24.95
2022-08-08T21:09:31.619Z,24.87
2022-08-08T21:12:13.813Z,24.94
2022-08-08T21:14:49.048Z,24.96
2022-08-08T21:17:17.452Z,25.03
2022-08-08T21:19:47.524Z,24.62
2022-08-08T21:22:16.081Z,25.04
2022-08-08T21:24:52.674Z,24.76
2022-08-08T21:28:05.284Z,24.03
2022-08-08T21:30:18.610Z,25.08
2022-08-08T21:32:52.180Z,24.97
2022-08-08T21:36:14.716Z,24.77
2022-08-08T21:38:16.462Z,24.88
2022-08-08T21:40:55.691Z,24.20
2022-08-08T21:43:33.036Z,24.72
2022-08-08T21:48:01.729Z,24.94
2022-08-08T21:48:51.940Z,24.91
2022-08-08T21:54:17.119Z,24.95
2022-08-08T21:54:34.362Z,24.74
2022-08-08T21:56:59.304Z,24.64
2022-08-08T22:00:01.541Z,24.64
2022-08-08T22:02:20.553Z,24.76
2022-08-08T22:04:52.508Z,23.37
2022-08-08T22:07:20.709Z,24.11
2022-08-08T22:09:55.020Z,23.56
2022-08-08T22:12:22.932Z,24.45
2022-08-08T22:14:54.657Z,24.19
2022-08-08T22:17:22.597Z,24.42
2022-08-08T22:20:13.006Z,23.88
2022-08-08T22:22:39.093Z,24.37
2022-08-08T22:25:19.871Z,24.35
2022-08-08T22:28:03.512Z,23.60
2022-08-08T22:30:34.568Z,24.37
2022-08-08T22:33:03.391Z,24.42
2022-08-08T22:36:04.932Z,24.50
2022-08-08T22:38:48.305Z,24.53
2022-08-08T22:41:21.019Z,24.46
2022-08-08T22:44:03.003Z,24.15
2022-08-08T22:46:39.666Z,24.27
2022-08-08T22:49:09.104Z,23.64
2022-08-08T22:51:42.883Z,24.30
2022-08-08T22:54:32.638Z,24.34
2022-08-08T22:57:11.359Z,24.36
2022-08-08T22:59:48.403Z,24.28
2022-08-08T23:02:29.687Z,23.73
2022-08-08T23:05:04.831Z,24.07
2022-08-08T23:07:51.494Z,24.03
2022-08-08T23:10:25.530Z,24.07
2022-08-08T23:12:55.253Z,24.10
2022-08-08T23:16:39.241Z,22.69
2022-08-08T23:18:13.935Z,24.23
2022-08-08T23:20:43.833Z,24.42
2022-08-08T23:23:12.917Z,24.37
2022-08-08T23:25:47.882Z,24.31
2022-08-08T23:28:17.786Z,24.36
2022-08-08T23:30:46.872Z,24.39
2022-08-08T23:33:19.118Z,23.84
2022-08-08T23:36:07.591Z,24.10
2022-08-08T23:38:36.090Z,24.05
2022-08-08T23:41:12.047Z,23.98
2022-08-08T23:43:47.801Z,24.00
2022-08-08T23:49:00.922Z,23.78
2022-08-08T23:49:15.140Z,23.99
2022-08-08T23:52:06.904Z,23.85
2022-08-08T23:54:41.500Z,23.79
2022-08-08T23:57:20.970Z,23.81
